Middletown, Vermont
Current Conditions -  °F | °C
As of 10:19 PM on Wednesday 26 Nov 2014 (Local Time) from KVSF Reporting Station
Light Snow Light Snow  
Wind Chill: -5°   Ceiling: 2800
Heat Index: -1°   Visibility: 2.5mi
Dew Point: -3°   Wind: 9mph
Humidity: 82%   Direction: 360°N
Pressure: 29.83"   Gusts: 16mph
Location:  43.2811°N, 72.6352°W
Report Text: KVSF 270319Z AUTO 36008G14KT 320V040 2 1/2SM -SN SCT020 OVC028 M01/M03 A2983 RMK AO2 P0000 T10061033
Loading
Personal Weather Stations






























Interactive Weather Map New forecast layout! Learn more

10-Day Weather Forecast

Advertisements
Track Severe Weather on mobile